Time;durP1;ratioP1;P1;durP2;ratioP2;P2;SDS_P1;SDS_P2;PMS_P1;PMS_P2;Temp;Humidity;BMP_temperature;BMP_pressure;BME280_temperature;BME280_humidity;BME280_pressure;Samples;Min_cycle;Max_cycle;Signal;HPM_P1;HPM_P2
2024/02/25 00:01:12;;;;;;;9.32;4.32;;;;;;;1.82;81.97;100048.75;5032447;28;20503;-62
2024/02/25 00:03:38;;;;;;;8.25;4.70;;;;;;;1.87;82.01;100040.44;5033943;28;20098;-61
2024/02/25 00:06:03;;;;;;;10.18;5.03;;;;;;;1.88;82.27;100040.25;5032288;28;20052;-63
2024/02/25 00:08:29;;;;;;;8.52;5.07;;;;;;;1.90;82.23;100040.09;5033904;28;20053;-62
2024/02/25 00:10:55;;;;;;;8.35;4.47;;;;;;;1.72;82.21;100014.13;5048899;28;20411;-64
2024/02/25 00:13:21;;;;;;;8.75;4.40;;;;;;;1.99;82.62;100039.09;5048936;28;20045;-62
2024/02/25 00:15:46;;;;;;;8.45;5.18;;;;;;;1.93;81.71;100040.56;5033613;28;20039;-64
2024/02/25 00:18:12;;;;;;;8.65;4.65;;;;;;;2.02;82.56;100044.81;5048553;28;20076;-61
2024/02/25 00:20:38;;;;;;;10.02;5.07;;;;;;;1.97;81.65;100039.28;5032221;28;20037;-63
2024/02/25 00:23:04;;;;;;;6.38;4.70;;;;;;;2.03;81.87;100046.47;5033580;28;20164;-62
2024/02/25 00:25:29;;;;;;;8.40;4.60;;;;;;;2.08;82.67;100035.50;5033256;28;20155;-61
2024/02/25 00:27:55;;;;;;;9.13;4.78;;;;;;;2.04;81.77;100026.34;5033280;28;20053;-61
2024/02/25 00:30:21;;;;;;;7.57;4.35;;;;;;;1.93;81.86;100035.34;5033156;28;20069;-62
2024/02/25 00:32:46;;;;;;;7.88;4.50;;;;;;;1.99;82.68;100034.69;5048588;28;20050;-63
2024/02/25 00:35:12;;;;;;;8.52;5.22;;;;;;;2.09;82.44;100037.13;5048438;28;20553;-63
2024/02/25 00:37:38;;;;;;;8.23;4.88;;;;;;;2.10;81.63;100032.72;5032798;28;20084;-62
2024/02/25 00:40:07;;;;;;;7.40;4.53;;;;;;;2.17;81.94;100033.69;5031587;28;20068;-62
2024/02/25 00:42:33;;;;;;;9.05;5.32;;;;;;;2.12;81.09;100038.59;5031644;28;20045;-62
2024/02/25 00:44:59;;;;;;;8.18;4.57;;;;;;;2.02;81.24;100039.59;5032819;28;20044;-63
2024/02/25 00:47:24;;;;;;;8.82;4.95;;;;;;;1.98;81.25;100040.91;5032997;28;20045;-62
2024/02/25 00:49:50;;;;;;;9.73;5.07;;;;;;;2.02;81.12;100036.16;5031492;28;20503;-63
2024/02/25 00:52:16;;;;;;;9.85;5.20;;;;;;;2.06;81.04;100032.25;5031378;28;20096;-61
2024/02/25 00:54:44;;;;;;;10.05;5.10;;;;;;;2.09;80.39;100039.75;5032623;28;20049;-62
2024/02/25 00:57:10;;;;;;;8.95;4.07;;;;;;;2.07;80.24;100030.44;5047642;28;20041;-62
2024/02/25 00:59:35;;;;;;;7.32;4.82;;;;;;;2.09;80.79;100050.22;5032486;28;20056;-65
2024/02/25 01:02:01;;;;;;;9.95;4.70;;;;;;;2.04;80.92;100034.19;5032351;28;20090;-62
2024/02/25 01:04:27;;;;;;;10.65;5.50;;;;;;;2.02;81.30;100044.00;5032553;28;20040;-62
2024/02/25 01:06:52;;;;;;;8.45;4.82;;;;;;;2.04;82.17;100045.47;5032129;28;20541;-62
2024/02/25 01:09:18;;;;;;;9.00;5.05;;;;;;;1.90;82.33;100043.53;5032746;28;20057;-60
2024/02/25 01:11:45;;;;;;;9.00;5.15;;;;;;;1.98;83.39;100038.28;5032580;28;20048;-62
2024/02/25 01:14:15;;;;;;;11.27;4.90;;;;;;;1.97;83.92;100044.50;5047892;28;20449;-62
2024/02/25 01:16:41;;;;;;;11.25;5.57;;;;;;;1.93;84.62;100022.28;5032254;28;20491;-62
2024/02/25 01:19:07;;;;;;;9.57;5.10;;;;;;;1.90;84.16;100027.84;5032445;28;20525;-61
2024/02/25 01:21:33;;;;;;;9.43;5.57;;;;;;;1.92;84.72;100041.56;5032140;28;20506;-64
2024/02/25 01:23:58;;;;;;;10.70;4.95;;;;;;;1.87;84.21;100041.25;5032507;28;20054;-62
2024/02/25 01:26:24;;;;;;;8.07;5.50;;;;;;;1.88;84.63;100034.22;5032100;28;20037;-64
2024/02/25 01:28:49;;;;;;;8.88;5.47;;;;;;;1.95;85.52;100051.69;5032402;28;20041;-63
2024/02/25 01:31:15;;;;;;;8.57;5.18;;;;;;;1.91;84.14;100036.50;5031935;28;20043;-63
2024/02/25 01:33:41;;;;;;;9.93;5.30;;;;;;;1.91;84.37;100047.78;5031770;28;20042;-61
2024/02/25 01:36:07;;;;;;;8.35;4.72;;;;;;;1.97;84.69;100036.66;5031399;28;20042;-65
2024/02/25 01:38:32;;;;;;;7.53;5.05;;;;;;;1.86;83.81;100057.91;5032117;28;20045;-61
2024/02/25 01:40:58;;;;;;;7.75;5.03;;;;;;;1.84;83.85;100046.78;5030509;28;20037;-62
2024/02/25 01:43:24;;;;;;;9.05;5.75;;;;;;;1.83;84.20;100055.63;5047218;28;20073;-61
2024/02/25 01:45:50;;;;;;;11.15;4.97;;;;;;;1.72;84.30;100048.13;5030494;28;20045;-64
2024/02/25 01:48:18;;;;;;;8.75;5.28;;;;;;;1.70;84.62;100047.44;5031879;28;20049;-61
2024/02/25 01:50:44;;;;;;;9.40;4.82;;;;;;;1.69;85.02;100043.22;5031967;28;20190;-62
2024/02/25 01:53:10;;;;;;;8.18;5.32;;;;;;;1.84;85.70;100036.34;5031389;28;20582;-62
2024/02/25 01:55:37;;;;;;;9.25;4.93;;;;;;;1.93;84.86;100045.00;5032153;28;20380;-62
2024/02/25 01:58:02;;;;;;;8.75;4.85;;;;;;;1.90;84.33;100034.88;5046952;28;20077;-61
2024/02/25 02:00:29;;;;;;;10.05;5.40;;;;;;;1.86;84.51;100049.25;5031870;28;20087;-63
2024/02/25 02:02:55;;;;;;;9.85;5.10;;;;;;;1.70;84.68;100042.22;5031788;28;20049;-62
2024/02/25 02:05:21;;;;;;;9.70;5.28;;;;;;;1.86;86.25;100029.16;5046830;28;20041;-61
2024/02/25 02:07:47;;;;;;;11.18;5.32;;;;;;;1.91;84.82;100039.09;5046626;28;20222;-61
2024/02/25 02:10:14;;;;;;;8.93;5.25;;;;;;;1.97;85.08;100044.50;5030523;28;20533;-62
2024/02/25 02:12:43;;;;;;;10.30;6.40;;;;;;;1.96;84.88;100044.66;5031456;28;20052;-62
2024/02/25 02:15:11;;;;;;;9.05;5.50;;;;;;;1.89;84.99;100038.47;5030498;28;20087;-62
2024/02/25 02:17:40;;;;;;;10.43;5.13;;;;;;;1.85;84.30;100048.41;5031573;28;20049;-60
2024/02/25 02:20:18;;;;;;;9.40;5.20;;;;;;;1.84;84.96;100048.59;5030500;28;20045;-61
2024/02/25 02:22:44;;;;;;;9.50;5.55;;;;;;;1.75;85.35;100043.38;5030058;28;20076;-61
2024/02/25 02:25:11;;;;;;;11.02;5.78;;;;;;;1.70;85.99;100057.91;5029979;28;20047;-62
2024/02/25 02:27:38;;;;;;;12.85;5.65;;;;;;;1.58;85.94;100060.03;5029970;28;20045;-62
2024/02/25 02:30:07;;;;;;;9.65;5.85;;;;;;;1.66;87.42;100054.81;5030037;28;20072;-62
2024/02/25 02:32:34;;;;;;;9.68;6.07;;;;;;;1.65;86.74;100049.72;5046700;28;20037;-61
2024/02/25 02:35:00;;;;;;;8.70;5.63;;;;;;;1.74;87.15;100056.63;5029942;28;20145;-62
2024/02/25 02:37:25;;;;;;;9.25;5.50;;;;;;;1.78;85.96;100057.91;5031343;28;20494;-62
2024/02/25 02:39:51;;;;;;;11.75;5.70;;;;;;;1.88;86.38;100065.59;5029765;28;20426;-60
2024/02/25 02:42:17;;;;;;;9.98;5.80;;;;;;;1.75;85.01;100053.00;5031092;28;20417;-62
2024/02/25 02:44:45;;;;;;;8.30;5.13;;;;;;;1.68;85.57;100062.50;5031346;28;20033;-63
2024/02/25 02:47:12;;;;;;;10.50;5.47;;;;;;;1.62;85.89;100061.34;5033739;28;20049;-61
2024/02/25 02:49:38;;;;;;;8.65;5.35;;;;;;;1.61;85.67;100051.03;5033854;28;20037;-62
2024/02/25 02:52:04;;;;;;;10.25;5.65;;;;;;;1.62;86.22;100055.28;5033596;28;20045;-62
2024/02/25 02:54:30;;;;;;;10.50;5.82;;;;;;;1.71;86.20;100046.50;5034945;28;20044;-62
2024/02/25 02:56:55;;;;;;;8.60;5.28;;;;;;;1.70;85.83;100047.44;5034909;28;20041;-63
2024/02/25 02:59:21;;;;;;;9.82;5.32;;;;;;;1.68;85.54;100044.22;5035071;28;20118;-63
2024/02/25 03:01:50;;;;;;;8.18;5.22;;;;;;;1.64;86.18;100046.31;5034790;28;20500;-64
2024/02/25 03:04:17;;;;;;;8.00;5.00;;;;;;;1.69;86.47;100038.81;5049986;28;20511;-63
2024/02/25 03:06:43;;;;;;;9.18;6.10;;;;;;;1.69;86.19;100038.81;5034716;28;20054;-62
2024/02/25 03:09:09;;;;;;;9.77;5.25;;;;;;;1.69;85.82;100038.81;5035111;28;20037;-62
2024/02/25 03:11:34;;;;;;;8.63;5.45;;;;;;;1.69;85.45;100043.22;5034632;28;20511;-63
2024/02/25 03:14:00;;;;;;;10.15;5.57;;;;;;;1.64;85.94;100042.88;5034454;28;20050;-61
2024/02/25 03:16:26;;;;;;;8.32;5.53;;;;;;;1.56;85.91;100048.94;5049925;28;20045;-62
2024/02/25 03:18:52;;;;;;;10.70;6.35;;;;;;;1.55;85.94;100037.66;5049825;28;20057;-61
2024/02/25 03:21:18;;;;;;;11.13;5.68;;;;;;;1.56;85.63;100043.72;5034423;28;20045;-60
2024/02/25 03:23:43;;;;;;;8.57;5.53;;;;;;;1.51;85.60;100046.81;5033179;28;20067;-62
2024/02/25 03:26:16;;;;;;;11.65;6.38;;;;;;;1.58;86.73;100052.19;5034302;28;20052;-63
2024/02/25 03:28:42;;;;;;;10.73;6.30;;;;;;;1.58;85.99;100036.50;5034668;28;20137;-62
2024/02/25 03:31:08;;;;;;;11.25;6.20;;;;;;;1.48;85.42;100049.75;5032923;28;20087;-63
2024/02/25 03:33:34;;;;;;;10.88;6.70;;;;;;;1.53;86.26;100036.16;5034570;28;20060;-62
2024/02/25 03:36:00;;;;;;;9.18;5.65;;;;;;;1.55;86.21;100055.94;5032856;28;20453;-60
2024/02/25 03:38:26;;;;;;;10.98;6.18;;;;;;;1.55;86.55;100055.13;5034269;28;20056;-61
2024/02/25 03:40:52;;;;;;;11.70;6.15;;;;;;;1.55;86.88;100048.09;5034093;28;20099;-62
2024/02/25 03:43:18;;;;;;;12.15;6.30;;;;;;;1.67;86.29;100056.44;5032729;28;20049;-61
2024/02/25 03:45:43;;;;;;;12.80;6.53;;;;;;;1.65;86.10;100052.34;5034313;28;20042;-63
2024/02/25 03:48:09;;;;;;;8.38;5.78;;;;;;;1.57;84.55;100048.75;5034190;28;20076;-62
2024/02/25 03:50:35;;;;;;;9.55;5.35;;;;;;;1.53;84.09;100049.22;5034203;28;20071;-62
2024/02/25 03:53:00;;;;;;;7.88;5.38;;;;;;;1.51;84.14;100048.59;5033951;28;20041;-62
2024/02/25 03:55:28;;;;;;;12.75;5.88;;;;;;;1.59;84.40;100052.03;5033338;28;20041;-63
2024/02/25 03:57:56;;;;;;;11.45;6.05;;;;;;;1.54;83.15;100053.50;5033855;28;20049;-63
2024/02/25 04:00:23;;;;;;;9.75;6.35;;;;;;;1.61;84.49;100064.13;5033737;28;20462;-60
2024/02/25 04:02:49;;;;;;;10.48;6.20;;;;;;;1.61;83.96;100058.88;5032205;28;20072;-62
2024/02/25 04:05:15;;;;;;;10.10;6.28;;;;;;;1.69;83.46;100062.31;5049044;28;20068;-62
2024/02/25 04:07:42;;;;;;;8.25;5.53;;;;;;;1.68;83.50;100063.31;5032174;28;20049;-61
2024/02/25 04:10:11;;;;;;;9.57;5.68;;;;;;;1.59;83.33;100061.69;5033810;28;20049;-58
2024/02/25 04:12:38;;;;;;;10.43;6.30;;;;;;;1.60;83.34;100063.31;5032202;28;20136;-61
2024/02/25 04:15:05;;;;;;;12.38;6.40;;;;;;;1.54;83.29;100072.59;5033365;28;20503;-62
2024/02/25 04:17:31;;;;;;;11.20;5.85;;;;;;;1.51;83.15;100083.38;5033373;28;20045;-61
2024/02/25 04:19:57;;;;;;;15.63;6.88;;;;;;;1.47;84.24;100076.84;5033276;28;20056;-61
2024/02/25 04:22:24;;;;;;;9.77;6.28;;;;;;;1.53;83.73;100085.81;5031887;28;20041;-63
2024/02/25 04:24:50;;;;;;;12.10;6.43;;;;;;;1.58;84.92;100083.53;5033571;28;20469;-62
2024/02/25 04:27:16;;;;;;;10.88;6.55;;;;;;;1.53;83.70;100085.81;5033220;28;20046;-61
2024/02/25 04:29:45;;;;;;;11.60;7.05;;;;;;;1.61;84.90;100087.63;5048524;28;20525;-63
2024/02/25 04:32:12;;;;;;;9.68;6.40;;;;;;;1.54;84.69;100088.28;5033044;28;20069;-63
2024/02/25 04:34:38;;;;;;;12.77;6.93;;;;;;;1.59;85.06;100101.69;5033155;28;20120;-61
2024/02/25 04:37:04;;;;;;;16.42;6.75;;;;;;;1.57;84.51;100105.44;5032951;28;20561;-61
2024/02/25 04:39:30;;;;;;;11.48;6.78;;;;;;;1.44;84.58;100102.47;5048327;28;20045;-62
2024/02/25 04:41:56;;;;;;;10.70;6.07;;;;;;;1.40;84.86;100096.75;5031486;28;20033;-62
2024/02/25 04:44:22;;;;;;;10.35;6.65;;;;;;;1.44;85.90;100107.69;5033022;28;20068;-62
2024/02/25 04:46:47;;;;;;;10.90;6.25;;;;;;;1.49;86.05;100103.63;5044624;28;20046;-61
2024/02/25 04:49:15;;;;;;;11.90;6.40;;;;;;;1.53;85.17;100104.94;5011582;28;20439;-62
2024/02/25 04:51:41;;;;;;;14.93;6.57;;;;;;;1.57;85.42;100108.88;5012926;28;20100;-61
2024/02/25 04:54:07;;;;;;;12.82;7.13;;;;;;;1.71;85.65;100107.41;5024226;28;20450;-61
2024/02/25 04:56:32;;;;;;;12.60;6.63;;;;;;;1.81;85.56;100108.06;5032531;28;20059;-64
2024/02/25 04:59:08;;;;;;;15.95;7.15;;;;;;;1.68;83.40;100104.31;5034338;28;20107;-60
2024/02/25 05:01:43;;;;;;;12.80;6.68;;;;;;;1.69;84.44;100113.78;5001312;28;20045;-62
2024/02/25 05:04:09;;;;;;;10.95;6.28;;;;;;;1.73;83.45;100102.81;5032738;28;20128;-61
2024/02/25 05:06:35;;;;;;;14.52;6.78;;;;;;;1.75;83.34;100110.50;5031467;28;20483;-62
2024/02/25 05:09:02;;;;;;;13.90;6.63;;;;;;;1.75;83.38;100107.91;5031032;28;20076;-63
2024/02/25 05:11:28;;;;;;;9.02;6.00;;;;;;;1.74;83.20;100111.50;5047930;28;20037;-61
2024/02/25 05:13:55;;;;;;;10.48;6.60;;;;;;;1.63;82.50;100117.03;5032587;28;20061;-63
2024/02/25 05:16:20;;;;;;;11.85;5.93;;;;;;;1.51;82.69;100112.13;5032166;28;20041;-60
2024/02/25 05:18:46;;;;;;;11.05;6.80;;;;;;;1.50;83.48;100134.00;5032304;28;20577;-62
2024/02/25 05:21:12;;;;;;;12.25;5.93;;;;;;;1.47;83.57;100123.88;5032401;28;20122;-62
2024/02/25 05:23:38;;;;;;;13.32;6.68;;;;;;;1.46;84.26;100124.03;5031045;28;20067;-62
2024/02/25 05:26:04;;;;;;;12.93;6.55;;;;;;;1.36;83.61;100126.78;5019786;28;20401;-62
2024/02/25 05:28:29;;;;;;;12.43;6.75;;;;;;;1.34;84.52;100137.38;5010778;28;20195;-62
2024/02/25 05:30:56;;;;;;;12.15;5.80;;;;;;;1.33;85.21;100138.38;5012508;28;20076;-61
2024/02/25 05:33:22;;;;;;;12.43;7.00;;;;;;;1.29;85.62;100137.03;5010974;28;20427;-61
2024/02/25 05:35:48;;;;;;;15.60;7.30;;;;;;;1.35;85.98;100143.41;5020930;28;20038;-61
2024/02/25 05:38:16;;;;;;;11.50;6.50;;;;;;;1.36;86.25;100143.28;4997791;28;20050;-61
2024/02/25 05:40:43;;;;;;;12.50;7.47;;;;;;;1.44;86.36;100132.03;5012034;28;20046;-62
2024/02/25 05:43:08;;;;;;;13.82;7.28;;;;;;;1.40;85.46;100117.66;5011432;28;20053;-62
2024/02/25 05:45:34;;;;;;;12.77;6.90;;;;;;;1.58;86.32;100139.22;5010894;28;20050;-63
2024/02/25 05:48:00;;;;;;;11.98;6.80;;;;;;;1.62;85.22;100138.91;5010668;28;20480;-62
2024/02/25 05:50:26;;;;;;;14.02;6.82;;;;;;;1.48;84.69;100143.00;5010267;28;20553;-64
2024/02/25 05:52:52;;;;;;;16.33;6.93;;;;;;;1.45;85.55;100132.84;5010489;28;20204;-63
2024/02/25 05:55:18;;;;;;;17.95;6.80;;;;;;;1.51;85.17;100142.66;5044616;28;20140;-63
2024/02/25 05:57:43;;;;;;;13.82;7.00;;;;;;;1.54;85.15;100130.09;5029480;28;20497;-63
2024/02/25 06:00:12;;;;;;;11.05;6.75;;;;;;;1.52;85.80;100142.50;5030024;28;20053;-64
2024/02/25 06:02:45;;;;;;;12.93;7.20;;;;;;;1.49;84.71;100134.97;5030218;28;20048;-63
2024/02/25 06:05:16;;;;;;;10.60;6.90;;;;;;;1.45;84.99;100128.44;5031425;28;20076;-63
2024/02/25 06:07:43;;;;;;;10.52;6.72;;;;;;;1.40;85.23;100132.50;5031370;28;20076;-63
2024/02/25 06:10:09;;;;;;;10.90;6.53;;;;;;;1.43;85.46;100138.22;5031933;28;20135;-62
2024/02/25 06:12:37;;;;;;;13.45;6.90;;;;;;;1.40;84.67;100138.53;5031816;28;20407;-64
2024/02/25 06:15:11;;;;;;;15.93;6.97;;;;;;;1.36;85.03;100132.00;5030387;28;20052;-62
2024/02/25 06:17:39;;;;;;;10.75;6.45;;;;;;;1.47;84.81;100134.34;5046414;28;20041;-62
2024/02/25 06:20:07;;;;;;;15.20;6.90;;;;;;;1.53;85.55;100143.31;5029916;28;20052;-63
2024/02/25 06:22:34;;;;;;;12.32;6.45;;;;;;;1.59;86.19;100134.84;5031389;28;20065;-63
2024/02/25 06:25:00;;;;;;;13.50;6.70;;;;;;;1.61;85.75;100138.09;5046682;28;20083;-64
2024/02/25 06:27:25;;;;;;;13.57;7.10;;;;;;;1.71;86.73;100148.44;5031292;28;20128;-63
2024/02/25 06:29:51;;;;;;;13.90;6.65;;;;;;;1.84;86.69;100135.69;5031244;28;20426;-64
2024/02/25 06:32:16;;;;;;;13.15;6.70;;;;;;;1.93;86.28;100145.16;5046590;28;20075;-62
2024/02/25 06:34:42;;;;;;;11.82;7.00;;;;;;;1.81;84.20;100146.47;5031511;28;20045;-64
2024/02/25 06:37:08;;;;;;;12.52;6.57;;;;;;;1.78;84.18;100152.81;5031171;28;20099;-63
2024/02/25 06:39:34;;;;;;;12.25;6.47;;;;;;;1.65;82.67;100157.72;5046421;28;20041;-63
2024/02/25 06:41:59;;;;;;;9.70;6.28;;;;;;;1.62;84.07;100146.75;5046381;28;20115;-62
2024/02/25 06:44:25;;;;;;;12.32;6.45;;;;;;;1.58;83.99;100149.69;5029874;28;20041;-63
2024/02/25 06:46:51;;;;;;;11.07;6.50;;;;;;;1.76;85.66;100148.72;5029601;28;20480;-61
2024/02/25 06:49:17;;;;;;;13.82;6.30;;;;;;;1.92;84.77;100151.38;5029782;28;20041;-61
2024/02/25 06:51:43;;;;;;;11.82;6.07;;;;;;;2.07;84.17;100150.75;5029750;28;20052;-63
2024/02/25 06:54:08;;;;;;;14.35;7.43;;;;;;;2.07;83.74;100148.94;5031372;28;20112;-63
2024/02/25 06:56:34;;;;;;;11.93;7.22;;;;;;;2.10;81.98;100150.41;5029789;28;20507;-64
2024/02/25 06:59:00;;;;;;;14.25;7.75;;;;;;;2.17;83.87;100144.34;5031186;28;20486;-63
2024/02/25 07:01:26;;;;;;;13.15;6.70;;;;;;;2.27;82.77;100152.03;5029644;28;20503;-63
2024/02/25 07:03:51;;;;;;;12.30;6.43;;;;;;;2.19;81.28;100147.63;5031279;28;20049;-63
2024/02/25 07:06:17;;;;;;;11.05;6.78;;;;;;;2.25;82.41;100144.34;5030920;28;20040;-63
2024/02/25 07:08:43;;;;;;;12.35;7.38;;;;;;;2.38;81.68;100148.25;5046071;28;20049;-62
2024/02/25 07:11:17;;;;;;;12.32;6.35;;;;;;;2.43;81.57;100140.72;5046162;28;20049;-63
2024/02/25 07:13:44;;;;;;;10.63;6.72;;;;;;;2.44;79.61;100145.81;5029774;28;20513;-61
2024/02/25 07:16:10;;;;;;;10.95;6.63;;;;;;;2.24;80.38;100105.28;5029786;28;20038;-63
2024/02/25 07:18:36;;;;;;;12.48;7.03;;;;;;;2.51;80.14;100132.88;5029581;28;20568;-62
2024/02/25 07:21:02;;;;;;;14.02;7.07;;;;;;;2.62;80.87;100139.56;5030763;28;20050;-64
2024/02/25 07:23:27;;;;;;;14.90;6.57;;;;;;;2.76;80.43;100141.47;5030848;28;20053;-62
2024/02/25 07:25:53;;;;;;;12.48;6.70;;;;;;;2.76;80.34;100141.47;5046330;28;20048;-62
2024/02/25 07:28:18;;;;;;;17.05;7.32;;;;;;;2.90;80.45;100151.25;5030743;28;20049;-63
2024/02/25 07:30:44;;;;;;;11.55;6.80;;;;;;;2.90;78.90;100139.97;5032006;28;20106;-64
2024/02/25 07:33:10;;;;;;;11.73;6.65;;;;;;;2.96;78.82;100145.34;5032903;28;20049;-63
2024/02/25 07:35:36;;;;;;;11.73;6.97;;;;;;;2.94;77.94;100151.72;5034202;28;20060;-62
2024/02/25 07:38:02;;;;;;;10.15;6.38;;;;;;;2.85;78.07;100142.25;5016386;28;20091;-62
2024/02/25 07:40:28;;;;;;;13.20;6.47;;;;;;;2.85;78.42;100143.06;5034062;28;20041;-63
2024/02/25 07:42:53;;;;;;;11.68;6.28;;;;;;;2.70;77.81;100132.47;5034162;28;20049;-64
2024/02/25 07:45:19;;;;;;;10.70;6.57;;;;;;;2.75;78.06;100139.03;5034326;28;20120;-64
2024/02/25 07:47:45;;;;;;;11.27;5.90;;;;;;;2.77;78.02;100148.34;5034063;28;20042;-62
2024/02/25 07:50:11;;;;;;;9.40;6.15;;;;;;;2.82;78.33;100129.50;5033964;28;20037;-63
2024/02/25 07:52:36;;;;;;;12.55;6.55;;;;;;;2.81;77.74;100127.88;5033910;28;20049;-63
2024/02/25 07:55:02;;;;;;;13.25;6.25;;;;;;;2.76;77.42;100132.81;5016005;28;20060;-63
2024/02/25 07:57:33;;;;;;;10.77;6.20;;;;;;;2.81;78.18;100140.97;5032697;28;20041;-62
2024/02/25 07:59:58;;;;;;;12.02;6.78;;;;;;;2.77;77.51;100145.75;5033738;28;20041;-63
2024/02/25 08:02:24;;;;;;;11.65;5.80;;;;;;;2.88;76.94;100134.91;5032334;28;20139;-63
2024/02/25 08:04:49;;;;;;;11.13;6.90;;;;;;;2.88;77.13;100142.78;5033811;28;20061;-63
2024/02/25 08:07:15;;;;;;;12.50;6.57;;;;;;;2.88;75.56;100160.25;5033598;28;20400;-62
2024/02/25 08:09:41;;;;;;;12.13;6.53;;;;;;;2.99;77.63;100152.03;5033903;28;20049;-64
2024/02/25 08:12:06;;;;;;;11.05;6.25;;;;;;;3.24;76.65;100159.81;5032249;28;20051;-63
2024/02/25 08:14:33;;;;;;;12.88;6.45;;;;;;;3.39;76.99;100158.91;5033599;28;20049;-64
2024/02/25 08:16:58;;;;;;;13.15;6.40;;;;;;;3.33;74.94;100148.31;5033647;28;20037;-62
2024/02/25 08:19:24;;;;;;;11.23;6.78;;;;;;;3.28;75.04;100150.63;5034483;28;20048;-63
2024/02/25 08:21:49;;;;;;;11.13;6.50;;;;;;;3.20;75.27;100148.84;5035075;28;20041;-63
2024/02/25 08:24:17;;;;;;;10.75;6.78;;;;;;;3.14;76.36;100152.97;5034551;28;20083;-63
2024/02/25 08:26:43;;;;;;;9.32;5.82;;;;;;;3.06;76.13;100154.78;5034929;28;20045;-62
2024/02/25 08:29:09;;;;;;;11.98;6.47;;;;;;;2.91;76.75;100160.75;5034973;28;20053;-62
2024/02/25 08:31:35;;;;;;;18.65;7.78;;;;;;;2.88;77.15;100162.88;5033917;28;20132;-64
2024/02/25 08:34:01;;;;;;;12.93;6.30;;;;;;;2.83;77.10;100154.72;5017659;28;20041;-63
2024/02/25 08:36:26;;;;;;;12.77;6.53;;;;;;;2.95;78.96;100166.47;5014794;28;20568;-65
2024/02/25 08:38:52;;;;;;;15.80;7.40;;;;;;;2.99;78.25;100164.31;5014693;28;20053;-62
2024/02/25 08:41:18;;;;;;;12.85;6.85;;;;;;;3.06;78.68;100167.88;5013622;28;20120;-64
2024/02/25 08:43:43;;;;;;;11.98;6.70;;;;;;;3.16;77.57;100165.91;5013491;28;20048;-63
2024/02/25 08:46:09;;;;;;;12.82;6.78;;;;;;;3.19;76.99;100163.75;5012009;28;20129;-66
2024/02/25 08:48:35;;;;;;;12.48;7.13;;;;;;;3.13;76.57;100166.25;5028343;28;20046;-62
2024/02/25 08:51:00;;;;;;;12.02;6.72;;;;;;;3.00;76.18;100176.44;5017607;28;20037;-62
2024/02/25 08:53:26;;;;;;;11.85;7.45;;;;;;;2.95;76.49;100176.94;5025104;28;20458;-61
2024/02/25 08:55:51;;;;;;;11.07;6.65;;;;;;;3.18;77.70;100177.84;5012403;28;20439;-60
2024/02/25 08:58:17;;;;;;;15.73;6.68;;;;;;;3.42;76.54;100182.16;5013040;28;20046;-61
2024/02/25 09:00:45;;;;;;;14.15;6.93;;;;;;;3.50;73.64;100181.31;5012883;28;20045;-63
2024/02/25 09:03:11;;;;;;;11.52;6.82;;;;;;;3.29;73.47;100189.75;5012601;28;20132;-61
2024/02/25 09:05:37;;;;;;;11.63;6.88;;;;;;;3.18;73.12;100203.25;5010329;28;20076;-59
2024/02/25 09:08:03;;;;;;;12.15;6.30;;;;;;;3.23;72.73;100200.91;5039623;28;20496;-63
2024/02/25 09:10:30;;;;;;;11.18;6.05;;;;;;;3.35;73.89;100193.47;5027901;28;20054;-64
2024/02/25 09:12:57;;;;;;;12.77;5.95;;;;;;;3.35;71.85;100194.31;5012612;28;20068;-62
2024/02/25 09:15:23;;;;;;;12.98;5.70;;;;;;;3.23;71.85;100164.22;5012532;28;20096;-63
2024/02/25 09:17:49;;;;;;;14.02;5.82;;;;;;;3.31;71.84;100189.59;5010337;28;20045;-62
2024/02/25 09:20:14;;;;;;;11.23;5.80;;;;;;;3.28;71.46;100185.50;5008884;28;20132;-61
2024/02/25 09:22:40;;;;;;;13.18;6.53;;;;;;;3.32;72.04;100188.59;5009706;28;20052;-61
2024/02/25 09:25:06;;;;;;;10.85;6.30;;;;;;;3.17;71.56;100160.47;5025713;28;20038;-62
2024/02/25 09:27:32;;;;;;;9.43;5.10;;;;;;;3.19;73.04;100176.84;5012316;28;20053;-62
2024/02/25 09:29:58;;;;;;;9.90;6.25;;;;;;;3.24;73.92;100181.59;5012331;28;20033;-62
2024/02/25 09:32:24;;;;;;;9.32;5.47;;;;;;;3.36;71.80;100185.47;5028311;28;20081;-61
2024/02/25 09:34:49;;;;;;;10.73;6.32;;;;;;;3.59;73.57;100196.00;5017368;28;20034;-62
2024/02/25 09:37:15;;;;;;;9.73;5.53;;;;;;;3.71;72.13;100185.13;5020942;28;20075;-61
2024/02/25 09:39:41;;;;;;;14.32;6.30;;;;;;;3.85;72.93;100195.69;5019761;28;20041;-62
2024/02/25 09:42:07;;;;;;;8.95;5.70;;;;;;;3.99;70.07;100195.94;5034733;28;20163;-62
2024/02/25 09:44:35;;;;;;;9.88;6.13;;;;;;;3.70;68.87;100193.97;5024636;28;20061;-64
2024/02/25 09:47:01;;;;;;;11.52;5.93;;;;;;;3.68;70.33;100194.16;5011022;28;20562;-58
2024/02/25 09:49:28;;;;;;;11.38;6.65;;;;;;;3.73;71.03;100185.75;5028344;28;20128;-63
2024/02/25 09:51:54;;;;;;;11.63;5.55;;;;;;;3.79;70.10;100187.69;5013304;28;20041;-62
2024/02/25 09:54:20;;;;;;;12.30;5.97;;;;;;;3.57;69.39;100191.94;5025087;28;20042;-60
2024/02/25 09:56:49;;;;;;;14.27;5.88;;;;;;;3.38;70.08;100193.97;5029624;28;20041;-62
2024/02/25 09:59:18;;;;;;;11.40;6.43;;;;;;;3.24;71.02;100186.84;5007421;28;20046;-62
2024/02/25 10:01:47;;;;;;;13.98;6.50;;;;;;;3.28;70.91;100188.13;5018058;28;20400;-62
2024/02/25 10:04:13;;;;;;;16.55;6.57;;;;;;;3.30;70.89;100180.91;5029662;28;20046;-62
2024/02/25 10:06:41;;;;;;;12.23;6.40;;;;;;;3.37;71.10;100184.47;5030903;28;20044;-60
2024/02/25 10:09:10;;;;;;;12.27;5.82;;;;;;;3.43;69.94;100182.97;4997088;28;20087;-61
2024/02/25 10:11:36;;;;;;;10.85;6.18;;;;;;;3.47;70.57;100178.19;5015329;28;20042;-62
2024/02/25 10:14:01;;;;;;;13.20;6.00;;;;;;;3.36;68.30;100184.66;5009804;28;20053;-63
2024/02/25 10:16:27;;;;;;;11.40;6.20;;;;;;;3.47;69.23;100170.34;4993573;28;20129;-66
2024/02/25 10:18:53;;;;;;;13.65;6.38;;;;;;;3.67;69.26;100187.25;5011248;28;20064;-63
2024/02/25 10:21:18;;;;;;;8.88;5.47;;;;;;;3.51;67.92;100182.13;5027518;28;20159;-64
2024/02/25 10:23:44;;;;;;;10.55;5.57;;;;;;;3.48;67.77;100185.91;5045796;28;20769;-63
2024/02/25 10:26:30;;;;;;;11.95;6.72;;;;;;;3.52;68.50;100189.00;5030837;28;20044;-64
2024/02/25 10:29:05;;;;;;;9.38;5.85;;;;;;;3.50;67.61;100176.06;5028157;28;20041;-62
2024/02/25 10:31:32;;;;;;;12.00;6.70;;;;;;;3.48;68.50;100177.22;5026169;28;20044;-62
2024/02/25 10:33:59;;;;;;;12.60;6.28;;;;;;;3.33;67.71;100167.47;5011384;28;20061;-61
2024/02/25 10:36:26;;;;;;;15.82;5.97;;;;;;;3.38;70.37;100178.25;5029541;28;20045;-63
2024/02/25 10:38:55;;;;;;;15.10;6.13;;;;;;;3.49;69.65;100176.22;5030868;28;20060;-62
2024/02/25 10:41:21;;;;;;;12.18;6.35;;;;;;;3.40;67.62;100185.94;5045957;28;20041;-62
2024/02/25 10:43:51;;;;;;;12.68;6.95;;;;;;;3.45;69.41;100182.81;5027460;28;20050;-62
2024/02/25 10:46:22;;;;;;;;;;;;;;;3.59;69.34;100182.09;5021965;28;20041;-62
2024/02/25 10:48:49;;;;;;;10.93;5.68;;;;;;;3.33;68.27;100185.00;5020068;28;19925;-64
2024/02/25 10:51:15;;;;;;;12.40;6.57;;;;;;;3.15;69.48;100188.66;5033617;28;20065;-63
2024/02/25 10:53:42;;;;;;;12.90;6.22;;;;;;;3.13;70.94;100180.16;5029636;28;20179;-62
2024/02/25 10:56:13;;;;;;;14.05;7.15;;;;;;;3.16;71.61;100192.91;5011122;28;20077;-63
2024/02/25 10:58:39;;;;;;;15.38;6.78;;;;;;;3.04;71.23;100188.22;5021861;28;20053;-61
2024/02/25 11:01:05;;;;;;;11.88;6.22;;;;;;;2.91;71.97;100186.09;5052633;28;20045;-63
2024/02/25 11:03:31;;;;;;;10.02;6.53;;;;;;;2.84;72.81;100185.97;5008955;28;20144;-62
2024/02/25 11:06:01;;;;;;;12.15;6.53;;;;;;;2.81;74.85;100190.72;5027628;28;20046;-64
2024/02/25 11:08:41;;;;;;;10.70;6.10;;;;;;;2.81;73.29;100188.91;5013593;28;20082;-63
2024/02/25 11:11:11;;;;;;;13.20;6.80;;;;;;;2.75;73.21;100194.00;5033904;28;20036;-62
2024/02/25 11:13:44;;;;;;;12.23;6.73;;;;;;;2.59;74.13;100187.81;5034273;28;20054;-63
2024/02/25 11:16:10;;;;;;;11.02;6.57;;;;;;;2.53;74.46;100190.28;5034170;28;20064;-62
2024/02/25 11:18:41;;;;;;;13.63;6.30;;;;;;;2.46;75.07;100175.22;5034224;28;20088;-62
2024/02/25 11:21:10;;;;;;;15.02;7.65;;;;;;;2.50;76.20;100191.44;5033213;28;20499;-62
2024/02/25 11:23:41;;;;;;;14.52;6.88;;;;;;;2.40;76.17;100182.94;5032223;28;20190;-64